createdAt,value
2018-08-31T00:02:44.074Z,96.10
2018-08-31T00:05:36.707Z,96.20
2018-08-31T00:09:15.473Z,96.50
2018-08-31T00:11:55.338Z,96.60
2018-08-31T00:14:24.085Z,96.20
2018-08-31T00:16:52.995Z,96.30
2018-08-31T00:19:21.830Z,95.60
2018-08-31T00:21:50.496Z,95.30
2018-08-31T00:24:30.777Z,95.60
2018-08-31T00:27:10.553Z,95.50
2018-08-31T00:29:51.447Z,95.30
2018-08-31T00:33:33.920Z,95.10
2018-08-31T00:37:21.694Z,95.40
2018-08-31T00:39:58.925Z,95.60
2018-08-31T00:42:56.795Z,95.80
2018-08-31T00:45:34.408Z,95.50
2018-08-31T00:48:04.146Z,95.20
2018-08-31T00:50:33.079Z,95.10
2018-08-31T00:53:02.828Z,95.00
2018-08-31T00:55:32.105Z,94.90
2018-08-31T00:58:01.774Z,94.90
2018-08-31T01:00:30.668Z,95.00
2018-08-31T01:02:59.588Z,94.80
2018-08-31T01:05:28.358Z,94.90
2018-08-31T01:07:57.030Z,95.00
2018-08-31T01:10:26.090Z,95.30
2018-08-31T01:12:57.422Z,95.60
2018-08-31T01:15:26.254Z,95.50
2018-08-31T01:17:57.260Z,95.40
2018-08-31T01:20:26.958Z,95.60
2018-08-31T01:23:00.377Z,95.70
2018-08-31T01:25:30.178Z,95.40
2018-08-31T01:28:03.178Z,95.20
2018-08-31T01:30:32.888Z,94.00
2018-08-31T01:33:05.898Z,94.50
2018-08-31T01:35:34.682Z,93.90
2018-08-31T01:38:05.189Z,94.00
2018-08-31T01:40:37.072Z,94.00
2018-08-31T01:43:07.323Z,94.00
2018-08-31T01:45:40.896Z,94.00
2018-08-31T01:48:09.656Z,93.20
2018-08-31T01:50:50.522Z,93.90
2018-08-31T01:53:22.016Z,93.80
2018-08-31T01:55:50.675Z,93.90
2018-08-31T01:58:23.190Z,93.80
2018-08-31T02:00:56.424Z,93.90
2018-08-31T02:03:25.112Z,93.80
2018-08-31T02:05:57.428Z,93.80
2018-08-31T02:08:26.084Z,93.70
2018-08-31T02:10:56.496Z,93.80
2018-08-31T02:13:26.115Z,93.70
2018-08-31T02:15:59.653Z,93.00
2018-08-31T02:18:32.082Z,93.60
2018-08-31T02:21:00.699Z,93.80
2018-08-31T02:23:32.491Z,93.80
2018-08-31T02:26:01.186Z,93.60
2018-08-31T02:28:34.046Z,93.70
2018-08-31T02:31:03.936Z,93.80
2018-08-31T02:33:36.654Z,93.90
2018-08-31T02:36:06.407Z,93.90
2018-08-31T02:38:36.797Z,93.90
2018-08-31T02:41:05.658Z,93.70
2018-08-31T02:46:22.641Z,93.90
2018-08-31T02:48:57.409Z,93.80
2018-08-31T02:51:26.142Z,94.00
2018-08-31T02:53:58.013Z,93.80
2018-08-31T02:56:26.725Z,93.80
2018-08-31T02:58:58.307Z,93.80
2018-08-31T03:01:27.250Z,93.80
2018-08-31T03:03:59.034Z,93.70
2018-08-31T03:06:27.766Z,93.70
2018-08-31T03:08:57.512Z,93.50
2018-08-31T03:11:26.453Z,93.60
2018-08-31T03:13:56.997Z,93.70
2018-08-31T03:16:25.625Z,93.90
2018-08-31T03:18:56.868Z,93.60
2018-08-31T03:21:26.768Z,93.50
2018-08-31T03:23:55.427Z,93.80
2018-08-31T03:26:24.092Z,93.70
2018-08-31T03:28:54.304Z,93.60
2018-08-31T03:31:22.977Z,93.50
2018-08-31T03:33:55.759Z,93.50
2018-08-31T03:36:24.598Z,93.60
2018-08-31T03:38:54.432Z,93.60
2018-08-31T03:41:23.042Z,94.00
2018-08-31T03:43:53.138Z,93.90
2018-08-31T03:46:22.274Z,93.50
2018-08-31T03:48:52.274Z,93.10
2018-08-31T03:51:21.836Z,92.90
2018-08-31T03:53:52.880Z,92.90
2018-08-31T03:56:21.552Z,92.60
2018-08-31T03:58:53.265Z,92.40
2018-08-31T04:01:21.963Z,92.30
2018-08-31T04:03:50.671Z,92.30
2018-08-31T04:06:24.924Z,92.20
2018-08-31T04:08:53.513Z,92.20
2018-08-31T04:11:24.217Z,92.10
2018-08-31T04:13:53.009Z,92.10
2018-08-31T04:16:26.913Z,92.00
2018-08-31T04:18:55.802Z,92.10
2018-08-31T04:21:26.465Z,91.90
2018-08-31T04:25:26.424Z,91.90
2018-08-31T04:27:55.215Z,92.10
2018-08-31T04:30:24.002Z,92.30
2018-08-31T04:32:52.708Z,92.80
2018-08-31T04:35:23.149Z,92.90
2018-08-31T04:37:51.739Z,92.70
2018-08-31T04:40:23.295Z,92.70
2018-08-31T04:42:52.094Z,92.70
2018-08-31T04:45:23.391Z,92.70
2018-08-31T04:47:52.355Z,92.70
2018-08-31T04:51:50.386Z,92.80
2018-08-31T04:54:23.660Z,92.80
2018-08-31T04:56:54.079Z,92.50
2018-08-31T04:59:33.571Z,92.60
2018-08-31T05:02:06.725Z,92.90
2018-08-31T05:04:35.417Z,93.10
2018-08-31T05:07:07.288Z,92.70
2018-08-31T05:09:43.859Z,93.20
2018-08-31T05:12:21.807Z,93.40
2018-08-31T05:14:51.804Z,93.30
2018-08-31T05:19:58.564Z,92.90
2018-08-31T05:22:30.034Z,92.90
2018-08-31T05:24:58.672Z,93.20
2018-08-31T05:27:30.958Z,93.20
2018-08-31T05:30:08.008Z,93.50
2018-08-31T05:32:38.783Z,93.10
2018-08-31T05:35:14.443Z,92.80
2018-08-31T05:37:43.570Z,92.60
2018-08-31T05:40:12.778Z,92.70
2018-08-31T05:42:43.274Z,92.90
2018-08-31T05:45:15.357Z,92.80
2018-08-31T05:47:43.981Z,92.80
2018-08-31T05:50:16.614Z,92.60
2018-08-31T05:52:45.426Z,92.10
2018-08-31T05:55:19.499Z,92.10
2018-08-31T05:57:48.128Z,92.20
2018-08-31T06:03:16.802Z,92.00
2018-08-31T06:05:49.455Z,91.70
2018-08-31T06:08:23.155Z,91.60
2018-08-31T06:10:53.676Z,91.50
2018-08-31T06:13:25.627Z,91.60
2018-08-31T06:15:55.716Z,91.50
2018-08-31T06:18:24.586Z,91.40
2018-08-31T06:20:53.384Z,91.10
2018-08-31T06:23:22.086Z,90.30
2018-08-31T06:25:51.020Z,89.70
2018-08-31T06:28:27.058Z,88.90
2018-08-31T06:30:55.768Z,89.10
2018-08-31T06:33:26.572Z,88.90
2018-08-31T06:35:55.788Z,88.90
2018-08-31T06:38:24.419Z,88.00
2018-08-31T06:40:53.397Z,87.30
2018-08-31T06:43:25.175Z,86.50
2018-08-31T06:45:53.965Z,85.80
2018-08-31T06:48:30.597Z,84.50
2018-08-31T06:51:07.770Z,84.40
2018-08-31T06:53:37.155Z,83.30
2018-08-31T06:59:39.807Z,83.40
2018-08-31T07:02:09.560Z,83.10
2018-08-31T07:04:38.304Z,82.60
2018-08-31T07:07:09.756Z,82.60
2018-08-31T07:09:38.829Z,82.30
2018-08-31T07:12:10.777Z,82.40
2018-08-31T07:14:39.485Z,81.90
2018-08-31T07:17:12.751Z,81.70
2018-08-31T07:19:41.591Z,81.40
2018-08-31T07:22:11.573Z,81.70
2018-08-31T07:24:40.490Z,81.40
2018-08-31T07:27:09.913Z,82.30
2018-08-31T07:29:39.743Z,83.90
2018-08-31T07:32:14.011Z,84.00
2018-08-31T07:34:48.386Z,83.40
2018-08-31T07:37:17.903Z,84.10
2018-08-31T07:39:48.295Z,83.60
2018-08-31T07:42:17.277Z,83.20
2018-08-31T07:44:50.347Z,83.20
2018-08-31T07:47:19.222Z,84.70
2018-08-31T07:49:48.032Z,86.60
2018-08-31T07:52:16.762Z,87.30
2018-08-31T07:54:45.654Z,85.90
2018-08-31T07:57:14.568Z,85.20
2018-08-31T07:59:44.457Z,83.30
2018-08-31T08:02:13.352Z,84.50
2018-08-31T08:04:42.173Z,84.50
2018-08-31T08:07:11.267Z,84.20
2018-08-31T08:09:40.044Z,83.80
2018-08-31T08:12:08.839Z,83.40
2018-08-31T08:14:43.094Z,83.50
2018-08-31T08:17:12.125Z,83.60
2018-08-31T08:19:41.188Z,84.30
2018-08-31T08:22:10.028Z,83.80
2018-08-31T08:24:39.857Z,83.20
2018-08-31T08:27:09.198Z,83.60
2018-08-31T08:29:38.111Z,84.00
2018-08-31T08:32:06.967Z,84.00
2018-08-31T08:34:37.697Z,83.90
2018-08-31T08:37:07.663Z,83.20
2018-08-31T08:39:36.971Z,81.70
2018-08-31T08:42:06.950Z,79.90
2018-08-31T08:44:35.809Z,80.00
2018-08-31T08:47:05.019Z,78.80
2018-08-31T08:49:33.752Z,78.70
2018-08-31T08:52:03.846Z,78.00
2018-08-31T08:54:32.540Z,77.20
2018-08-31T08:57:01.545Z,76.90
2018-08-31T08:59:30.313Z,77.00
2018-08-31T09:01:59.107Z,77.50
2018-08-31T09:04:27.825Z,77.90
2018-08-31T09:06:56.665Z,77.70
2018-08-31T09:09:25.902Z,78.80
2018-08-31T09:11:54.604Z,79.50
2018-08-31T09:14:23.487Z,78.80
2018-08-31T09:16:52.392Z,79.00
2018-08-31T09:19:21.147Z,80.10
2018-08-31T09:21:49.866Z,79.90
2018-08-31T09:24:20.073Z,77.80
2018-08-31T09:26:48.849Z,77.00
2018-08-31T09:29:19.341Z,77.00
2018-08-31T09:31:48.181Z,77.50
2018-08-31T09:34:20.811Z,76.40
2018-08-31T09:36:49.559Z,74.50
2018-08-31T09:41:53.474Z,75.80
2018-08-31T09:44:27.025Z,76.50
2018-08-31T09:46:56.126Z,77.40
2018-08-31T09:49:30.420Z,77.40
2018-08-31T09:51:59.326Z,77.50
2018-08-31T09:54:28.844Z,76.00
2018-08-31T09:57:10.261Z,77.20
2018-08-31T09:59:39.336Z,77.40
2018-08-31T10:02:17.738Z,76.20
2018-08-31T10:04:49.458Z,75.10
2018-08-31T10:07:18.286Z,74.50
2018-08-31T10:09:55.174Z,76.50
2018-08-31T10:12:24.913Z,76.80
2018-08-31T10:14:55.955Z,77.50
2018-08-31T10:17:30.800Z,76.10
2018-08-31T10:20:11.338Z,75.30
2018-08-31T10:22:40.212Z,75.90
2018-08-31T10:25:29.271Z,75.90
2018-08-31T10:27:59.856Z,75.60
2018-08-31T10:30:28.643Z,75.10
2018-08-31T10:32:58.384Z,74.20
2018-08-31T10:35:29.773Z,74.10
2018-08-31T10:38:06.002Z,75.10
2018-08-31T10:40:35.246Z,74.80
2018-08-31T10:43:06.172Z,75.40
2018-08-31T10:45:48.228Z,75.20
2018-08-31T10:48:29.653Z,76.30
2018-08-31T10:50:58.259Z,74.50
2018-08-31T10:53:26.979Z,74.20
2018-08-31T10:57:24.790Z,74.50
2018-08-31T10:59:53.920Z,75.00
2018-08-31T11:02:22.575Z,74.50
2018-08-31T11:04:52.998Z,74.40
2018-08-31T11:07:21.610Z,74.30
2018-08-31T11:09:55.068Z,74.40
2018-08-31T11:12:23.822Z,74.40
2018-08-31T11:14:54.778Z,73.90
2018-08-31T11:17:23.436Z,73.80
2018-08-31T11:19:53.316Z,73.30
2018-08-31T11:22:22.106Z,72.90
2018-08-31T11:24:52.782Z,72.30
2018-08-31T11:27:21.580Z,72.00
2018-08-31T11:29:50.213Z,70.50
2018-08-31T11:32:18.854Z,69.20
2018-08-31T11:34:47.647Z,68.10
2018-08-31T11:37:19.206Z,66.40
2018-08-31T11:39:52.362Z,65.10
2018-08-31T11:42:25.750Z,65.90
2018-08-31T11:44:56.546Z,65.20
2018-08-31T11:47:25.167Z,63.10
2018-08-31T11:49:53.969Z,61.70
2018-08-31T11:52:23.090Z,60.50
2018-08-31T11:54:53.237Z,61.00
2018-08-31T11:57:23.444Z,60.30
2018-08-31T11:59:55.044Z,60.90
2018-08-31T12:02:24.449Z,60.60
2018-08-31T12:04:55.330Z,60.50
2018-08-31T12:07:26.260Z,58.10
2018-08-31T12:09:55.109Z,55.60
2018-08-31T12:12:34.064Z,54.20
2018-08-31T12:15:08.287Z,55.60
2018-08-31T12:17:37.924Z,57.10
2018-08-31T12:20:14.635Z,57.20
2018-08-31T12:22:43.328Z,57.70
2018-08-31T12:25:13.240Z,58.10
2018-08-31T12:27:44.592Z,58.40
2018-08-31T12:30:15.297Z,58.20
2018-08-31T12:32:44.018Z,57.30
2018-08-31T12:35:16.561Z,57.50
2018-08-31T12:37:46.094Z,58.50
2018-08-31T12:40:14.704Z,57.70
2018-08-31T12:42:45.600Z,57.60
2018-08-31T12:45:14.338Z,57.90
2018-08-31T12:47:42.999Z,57.80
2018-08-31T12:50:12.884Z,58.00
2018-08-31T12:52:46.188Z,58.60
2018-08-31T12:55:16.483Z,59.50
2018-08-31T12:57:51.288Z,59.70
2018-08-31T13:00:30.814Z,60.00
2018-08-31T13:03:05.380Z,59.80
2018-08-31T13:05:34.773Z,58.80
2018-08-31T13:08:05.208Z,57.70
2018-08-31T13:10:42.684Z,58.60
2018-08-31T13:13:11.441Z,58.80
2018-08-31T13:15:41.617Z,57.50
2018-08-31T13:18:13.496Z,58.90
2018-08-31T13:20:45.036Z,58.60
2018-08-31T13:23:20.551Z,59.20
2018-08-31T13:25:51.884Z,59.70
2018-08-31T13:28:23.077Z,60.60
2018-08-31T13:30:58.904Z,60.80
2018-08-31T13:33:27.572Z,61.60
2018-08-31T13:35:57.766Z,60.80
2018-08-31T13:38:27.154Z,61.30
2018-08-31T13:40:56.176Z,62.20
2018-08-31T13:43:26.759Z,60.50
2018-08-31T13:45:55.715Z,60.30
2018-08-31T13:48:26.580Z,59.00
2018-08-31T13:50:55.284Z,58.30
2018-08-31T13:53:24.154Z,57.60
2018-08-31T13:55:52.878Z,57.40
2018-08-31T13:58:27.296Z,57.60
2018-08-31T14:00:56.776Z,58.00
2018-08-31T14:03:25.328Z,58.00
2018-08-31T14:05:56.038Z,58.30
2018-08-31T14:08:24.761Z,58.50
2018-08-31T14:10:54.080Z,58.70
2018-08-31T14:13:22.848Z,59.00
2018-08-31T14:15:51.721Z,58.90
2018-08-31T14:18:22.267Z,59.10
2018-08-31T14:20:51.016Z,59.10
2018-08-31T14:23:36.038Z,58.80
2018-08-31T14:28:42.728Z,58.50
2018-08-31T14:31:14.149Z,59.10
2018-08-31T14:33:44.014Z,58.70
2018-08-31T14:36:15.082Z,59.90
2018-08-31T14:38:44.014Z,59.50
2018-08-31T14:41:13.618Z,60.70
2018-08-31T14:43:42.271Z,61.20
2018-08-31T14:46:11.917Z,61.10
2018-08-31T14:48:40.667Z,60.50
2018-08-31T14:51:12.945Z,61.20
2018-08-31T14:53:45.252Z,60.60
2018-08-31T14:56:14.265Z,60.70
2018-08-31T14:58:43.802Z,60.60
2018-08-31T15:01:13.081Z,60.60
2018-08-31T15:03:44.795Z,60.50
2018-08-31T15:06:17.332Z,61.00
2018-08-31T15:08:51.326Z,61.70
2018-08-31T15:11:22.608Z,62.10
2018-08-31T15:13:51.264Z,62.30
2018-08-31T15:16:19.890Z,62.70
2018-08-31T15:18:51.820Z,62.90
2018-08-31T15:21:20.755Z,63.40
2018-08-31T15:23:49.570Z,63.80
2018-08-31T15:26:24.384Z,63.80
2018-08-31T15:28:56.254Z,63.90
2018-08-31T15:31:27.626Z,64.30
2018-08-31T15:33:56.654Z,64.80
2018-08-31T15:36:25.447Z,64.80
2018-08-31T15:38:54.069Z,64.10
2018-08-31T15:41:23.341Z,65.20
2018-08-31T15:43:51.995Z,65.80
2018-08-31T15:46:24.549Z,65.90
2018-08-31T15:48:53.440Z,65.90
2018-08-31T15:51:22.044Z,66.30
2018-08-31T15:54:00.279Z,66.20
2018-08-31T15:56:30.318Z,66.00
2018-08-31T15:59:00.628Z,65.70
2018-08-31T16:01:29.557Z,66.30
2018-08-31T16:03:58.469Z,66.20
2018-08-31T16:06:32.543Z,66.30
2018-08-31T16:09:01.308Z,66.00
2018-08-31T16:11:37.120Z,65.30
2018-08-31T16:14:17.297Z,65.80
2018-08-31T16:16:48.898Z,65.80
2018-08-31T16:20:47.820Z,65.80
2018-08-31T16:23:20.372Z,65.50
2018-08-31T16:25:52.626Z,65.80
2018-08-31T16:28:25.200Z,65.40
2018-08-31T16:30:54.086Z,65.80
2018-08-31T16:33:28.942Z,65.50
2018-08-31T16:35:59.931Z,65.40
2018-08-31T16:38:29.865Z,65.50
2018-08-31T16:41:00.109Z,65.70
2018-08-31T16:43:29.519Z,65.40
2018-08-31T16:45:58.823Z,66.00
2018-08-31T16:48:28.084Z,66.30
2018-08-31T16:51:00.993Z,66.60
2018-08-31T16:53:33.584Z,66.30
2018-08-31T16:58:39.234Z,66.70
2018-08-31T17:01:08.563Z,67.00
2018-08-31T17:03:37.300Z,66.90
2018-08-31T17:06:17.016Z,66.30
2018-08-31T17:08:49.307Z,67.00
2018-08-31T17:11:19.166Z,67.40
2018-08-31T17:13:52.040Z,67.00
2018-08-31T17:16:20.769Z,67.10
2018-08-31T17:20:20.958Z,67.60
2018-08-31T17:25:28.872Z,68.30
2018-08-31T17:28:09.320Z,68.40
2018-08-31T17:30:38.135Z,68.70
2018-08-31T17:33:20.667Z,68.80
2018-08-31T17:35:54.572Z,69.30
2018-08-31T17:38:28.714Z,69.00
2018-08-31T17:40:57.445Z,70.90
2018-08-31T17:43:30.421Z,69.40
2018-08-31T17:46:09.642Z,68.60
2018-08-31T17:48:39.268Z,69.60
2018-08-31T17:51:11.272Z,69.40
2018-08-31T17:53:41.008Z,69.90
2018-08-31T17:56:10.049Z,69.80
2018-08-31T17:58:43.058Z,70.20
2018-08-31T18:01:11.889Z,70.50
2018-08-31T18:03:40.907Z,70.80
2018-08-31T18:06:09.943Z,70.80
2018-08-31T18:08:39.463Z,70.90
2018-08-31T18:11:08.659Z,71.30
2018-08-31T18:13:37.377Z,71.30
2018-08-31T18:16:13.991Z,71.70
2018-08-31T18:18:53.555Z,71.90
2018-08-31T18:21:31.305Z,71.90
2018-08-31T18:24:02.254Z,72.10
2018-08-31T18:26:35.285Z,72.50
2018-08-31T18:29:06.014Z,72.90
2018-08-31T18:31:35.019Z,72.70
2018-08-31T18:34:06.813Z,72.50
2018-08-31T18:36:38.940Z,72.40
2018-08-31T18:40:39.051Z,72.30
2018-08-31T18:43:08.647Z,72.40
2018-08-31T18:45:39.931Z,72.60
2018-08-31T18:48:11.826Z,73.10
2018-08-31T18:50:41.747Z,73.50
2018-08-31T18:53:14.527Z,73.90
2018-08-31T18:55:43.587Z,73.90
2018-08-31T18:58:12.379Z,73.90
2018-08-31T19:00:42.148Z,73.90
2018-08-31T19:03:14.010Z,73.80
2018-08-31T19:05:45.034Z,74.00
2018-08-31T19:08:18.099Z,74.50
2018-08-31T19:10:47.031Z,74.60
2018-08-31T19:13:15.983Z,75.00
2018-08-31T19:15:44.993Z,75.00
2018-08-31T19:18:15.280Z,75.10
2018-08-31T19:20:44.544Z,74.80
2018-08-31T19:23:17.232Z,74.80
2018-08-31T19:25:46.275Z,74.40
2018-08-31T19:28:15.086Z,74.80
2018-08-31T19:30:43.960Z,74.90
2018-08-31T19:33:17.130Z,75.50
2018-08-31T19:35:46.154Z,75.40
2018-08-31T19:38:17.928Z,75.10
2018-08-31T19:40:46.711Z,75.80
2018-08-31T19:43:18.712Z,75.90
2018-08-31T19:45:54.005Z,76.00
2018-08-31T19:48:26.720Z,75.80
2018-08-31T19:50:55.728Z,75.30
2018-08-31T19:53:24.419Z,74.60
2018-08-31T19:57:23.438Z,74.30
2018-08-31T19:59:52.122Z,73.90
2018-08-31T20:02:21.052Z,73.80
2018-08-31T20:04:50.146Z,74.10
2018-08-31T20:07:25.463Z,74.10
2018-08-31T20:09:54.487Z,73.60
2018-08-31T20:12:23.445Z,73.80
2018-08-31T20:14:52.359Z,72.00
2018-08-31T20:17:21.302Z,73.40
2018-08-31T20:19:50.207Z,73.50
2018-08-31T20:22:26.150Z,73.60
2018-08-31T20:24:55.006Z,73.70
2018-08-31T20:27:23.823Z,74.90
2018-08-31T20:29:55.292Z,74.00
2018-08-31T20:32:25.231Z,74.30
2018-08-31T20:34:56.440Z,74.10
2018-08-31T20:37:28.378Z,73.70
2018-08-31T20:39:57.232Z,73.70
2018-08-31T20:42:28.132Z,73.10
2018-08-31T20:45:00.214Z,73.30
2018-08-31T20:47:31.622Z,72.90
2018-08-31T20:50:00.378Z,73.10
2018-08-31T20:52:29.095Z,71.00
2018-08-31T20:55:16.639Z,72.40
2018-08-31T20:57:57.586Z,71.90
2018-08-31T21:00:26.781Z,72.20
2018-08-31T21:02:57.814Z,72.10
2018-08-31T21:05:34.906Z,71.70
2018-08-31T21:08:05.848Z,71.80
2018-08-31T21:10:35.105Z,72.20
2018-08-31T21:13:06.607Z,71.80
2018-08-31T21:15:36.714Z,71.60
2018-08-31T21:18:07.289Z,71.90
2018-08-31T21:20:36.721Z,72.70
2018-08-31T21:23:11.037Z,72.30
2018-08-31T21:25:40.714Z,72.20
2018-08-31T21:28:12.982Z,72.30
2018-08-31T21:30:45.287Z,72.10
2018-08-31T21:33:14.119Z,71.90
2018-08-31T21:35:42.922Z,72.20
2018-08-31T21:38:14.145Z,73.40
2018-08-31T21:40:42.855Z,72.30
2018-08-31T21:43:14.556Z,71.90
2018-08-31T21:45:43.402Z,72.50
2018-08-31T21:48:12.170Z,72.70
2018-08-31T21:50:42.336Z,72.40
2018-08-31T21:53:13.549Z,72.80
2018-08-31T21:55:42.434Z,72.60
2018-08-31T21:58:13.154Z,73.10
2018-08-31T22:00:44.787Z,73.10
2018-08-31T22:03:13.911Z,74.60
2018-08-31T22:05:47.622Z,74.80
2018-08-31T22:08:17.773Z,74.70
2018-08-31T22:10:47.030Z,74.20
2018-08-31T22:13:16.564Z,74.60
2018-08-31T22:15:45.638Z,74.30
2018-08-31T22:18:16.943Z,75.40
2018-08-31T22:20:45.798Z,74.40
2018-08-31T22:23:14.486Z,75.10
2018-08-31T22:25:43.229Z,74.70
2018-08-31T22:28:11.995Z,75.30
2018-08-31T22:30:40.609Z,75.40
2018-08-31T22:33:09.268Z,75.60
2018-08-31T22:35:38.045Z,76.40
2018-08-31T22:38:07.282Z,76.20
2018-08-31T22:40:35.979Z,75.40
2018-08-31T22:43:07.988Z,75.30
2018-08-31T22:45:36.860Z,75.20
2018-08-31T22:48:09.622Z,75.60
2018-08-31T22:50:42.557Z,75.20
2018-08-31T22:53:12.681Z,74.50
2018-08-31T22:55:43.875Z,75.10
2018-08-31T22:58:13.004Z,74.70
2018-08-31T23:00:42.631Z,74.50
2018-08-31T23:03:11.690Z,73.50
2018-08-31T23:05:40.686Z,73.40
2018-08-31T23:08:09.976Z,73.00
2018-08-31T23:10:40.681Z,72.70
2018-08-31T23:13:09.873Z,73.50
2018-08-31T23:15:38.824Z,72.80
2018-08-31T23:18:09.388Z,72.80
2018-08-31T23:20:39.951Z,72.20
2018-08-31T23:23:15.196Z,72.60
2018-08-31T23:25:50.815Z,72.60
2018-08-31T23:28:20.732Z,72.10
2018-08-31T23:30:49.387Z,72.80
2018-08-31T23:33:19.561Z,72.60
2018-08-31T23:35:51.304Z,72.40
2018-08-31T23:38:20.110Z,72.60
2018-08-31T23:40:48.830Z,72.90
2018-08-31T23:43:17.730Z,72.70
2018-08-31T23:45:46.663Z,73.60
2018-08-31T23:48:15.594Z,74.40
2018-08-31T23:50:45.127Z,73.20
2018-08-31T23:53:14.196Z,73.40
2018-08-31T23:55:42.879Z,73.70
2018-08-31T23:58:14.822Z,74.00
